createdAt,value
2022-08-11T00:01:16.903Z,19.80
2022-08-11T00:04:04.873Z,19.70
2022-08-11T00:06:35.264Z,19.60
2022-08-11T00:09:05.252Z,19.50
2022-08-11T00:11:37.120Z,19.50
2022-08-11T00:14:13.441Z,19.60
2022-08-11T00:16:41.909Z,19.40
2022-08-11T00:19:09.585Z,19.40
2022-08-11T00:22:04.299Z,19.30
2022-08-11T00:24:53.508Z,19.20
2022-08-11T00:27:31.806Z,19.30
2022-08-11T00:29:58.750Z,19.30
2022-08-11T00:32:26.762Z,19.10
2022-08-11T00:35:51.761Z,19.20
2022-08-11T00:37:50.359Z,19.10
2022-08-11T00:40:28.337Z,19.10
2022-08-11T00:43:22.523Z,19.00
2022-08-11T00:46:10.644Z,19.00
2022-08-11T00:48:50.360Z,19.00
2022-08-11T00:52:04.760Z,18.80
2022-08-11T00:55:07.399Z,18.80
2022-08-11T00:58:13.033Z,18.80
2022-08-11T01:01:11.629Z,18.70
2022-08-11T01:04:09.854Z,18.70
2022-08-11T01:06:45.434Z,18.70
2022-08-11T01:09:33.602Z,18.60
2022-08-11T01:12:28.309Z,18.50
2022-08-11T01:15:00.734Z,18.50
2022-08-11T01:17:46.334Z,18.50
2022-08-11T01:20:44.865Z,18.40
2022-08-11T01:23:47.734Z,18.40
2022-08-11T01:27:00.254Z,18.30
2022-08-11T01:29:55.041Z,18.30
2022-08-11T01:32:40.234Z,18.20
2022-08-11T01:35:34.916Z,18.20
2022-08-11T01:38:34.423Z,18.10
2022-08-11T01:41:13.088Z,18.10
2022-08-11T01:44:27.925Z,18.10
2022-08-11T01:47:52.505Z,18.00
2022-08-11T01:50:54.127Z,18.00
2022-08-11T01:53:36.605Z,18.00
2022-08-11T01:56:24.984Z,17.90
2022-08-11T01:59:10.489Z,17.90
2022-08-11T02:01:40.909Z,17.90
2022-08-11T02:04:31.931Z,17.80
2022-08-11T02:07:21.267Z,17.80
2022-08-11T02:10:38.660Z,17.80
2022-08-11T02:13:41.547Z,17.70
2022-08-11T02:16:33.641Z,17.60
2022-08-11T02:19:42.689Z,17.60
2022-08-11T02:22:55.844Z,17.60
2022-08-11T02:25:46.366Z,17.50
2022-08-11T02:28:28.919Z,17.50
2022-08-11T02:32:24.276Z,17.40
2022-08-11T02:34:40.277Z,17.40
2022-08-11T02:37:24.405Z,17.30
2022-08-11T02:40:06.118Z,17.30
2022-08-11T02:42:50.532Z,17.30
2022-08-11T02:45:35.989Z,17.20
2022-08-11T02:49:12.905Z,17.30
2022-08-11T02:51:52.389Z,17.20
2022-08-11T02:54:37.973Z,17.20
2022-08-11T02:57:13.164Z,17.10
2022-08-11T03:00:07.455Z,17.10
2022-08-11T03:03:05.771Z,17.10
2022-08-11T03:06:10.875Z,17.10
2022-08-11T03:09:03.176Z,17.00
2022-08-11T03:12:11.038Z,17.20
2022-08-11T03:15:11.561Z,17.00
2022-08-11T03:18:06.384Z,17.00
2022-08-11T03:20:45.268Z,16.90
2022-08-11T03:26:19.522Z,16.80
2022-08-11T03:29:01.912Z,16.80
2022-08-11T03:31:34.140Z,16.70
2022-08-11T03:34:09.157Z,16.70
2022-08-11T03:36:55.760Z,16.70
2022-08-11T03:40:15.794Z,16.70
2022-08-11T03:42:44.117Z,16.70
2022-08-11T03:48:18.230Z,16.60
2022-08-11T03:50:59.133Z,16.60
2022-08-11T03:54:03.667Z,16.60
2022-08-11T03:57:03.296Z,16.60
2022-08-11T03:59:56.515Z,16.50
2022-08-11T04:02:55.495Z,16.50
2022-08-11T04:06:11.885Z,16.50
2022-08-11T04:08:59.962Z,16.40
2022-08-11T04:11:54.947Z,16.40
2022-08-11T04:15:07.789Z,16.40
2022-08-11T04:18:01.501Z,16.40
2022-08-11T04:20:51.785Z,16.40
2022-08-11T04:24:36.439Z,16.30
2022-08-11T04:26:47.964Z,16.30
2022-08-11T04:30:03.083Z,16.30
2022-08-11T04:32:49.375Z,16.30
2022-08-11T04:35:50.184Z,16.30
2022-08-11T04:38:37.694Z,16.30
2022-08-11T04:41:28.047Z,16.30
2022-08-11T04:44:31.788Z,16.40
2022-08-11T04:48:01.428Z,16.40
2022-08-11T04:51:16.403Z,16.40
2022-08-11T04:54:28.254Z,16.40
2022-08-11T04:57:19.596Z,16.40
2022-08-11T05:00:30.420Z,16.40
2022-08-11T05:03:35.555Z,16.40
2022-08-11T05:06:29.929Z,16.50
2022-08-11T05:09:31.778Z,16.40
2022-08-11T05:12:42.477Z,16.40
2022-08-11T05:15:55.358Z,16.40
2022-08-11T05:18:43.048Z,16.40
2022-08-11T05:21:44.296Z,16.40
2022-08-11T05:24:39.737Z,16.50
2022-08-11T05:27:27.907Z,16.60
2022-08-11T05:30:23.157Z,16.60
2022-08-11T05:33:29.312Z,16.60
2022-08-11T05:36:05.661Z,16.70
2022-08-11T05:38:53.681Z,16.70
2022-08-11T05:41:45.868Z,16.80
2022-08-11T05:44:37.768Z,16.90
2022-08-11T05:47:23.815Z,16.90
2022-08-11T05:50:13.804Z,17.00
2022-08-11T05:53:04.645Z,17.00
2022-08-11T05:56:02.441Z,17.10
2022-08-11T05:58:42.582Z,17.20
2022-08-11T06:01:22.939Z,17.30
2022-08-11T06:04:11.267Z,17.40
2022-08-11T06:06:45.173Z,17.50
2022-08-11T06:09:14.445Z,18.30
2022-08-11T06:14:13.104Z,20.80
2022-08-11T06:16:42.822Z,22.20
2022-08-11T06:19:11.138Z,23.60
2022-08-11T06:24:11.886Z,25.90
2022-08-11T06:27:08.747Z,26.90
2022-08-11T06:29:37.999Z,27.70
2022-08-11T06:35:07.616Z,29.30
2022-08-11T06:40:33.320Z,30.40
2022-08-11T06:43:18.022Z,30.90
2022-08-11T06:46:11.988Z,31.40
2022-08-11T06:48:55.919Z,31.90
2022-08-11T06:51:23.952Z,32.20
2022-08-11T06:54:04.501Z,32.60
2022-08-11T07:00:03.683Z,32.60
2022-08-11T07:02:49.263Z,32.70
2022-08-11T07:05:37.096Z,33.00
2022-08-11T07:08:56.166Z,33.10
2022-08-11T07:12:04.790Z,33.30
2022-08-11T07:14:51.477Z,33.50
2022-08-11T07:17:23.075Z,33.70
2022-08-11T07:20:18.412Z,33.80
2022-08-11T07:23:13.263Z,33.90
2022-08-11T07:26:01.209Z,33.70
2022-08-11T07:28:49.294Z,33.80
2022-08-11T07:31:36.022Z,33.70
2022-08-11T07:34:18.523Z,33.80
2022-08-11T07:36:59.440Z,33.60
2022-08-11T07:39:29.213Z,33.70
2022-08-11T07:41:58.628Z,33.90
2022-08-11T07:44:34.371Z,34.20
2022-08-11T07:47:21.311Z,34.30
2022-08-11T07:50:09.126Z,34.30
2022-08-11T07:52:38.083Z,34.30
2022-08-11T07:55:17.308Z,34.20
2022-08-11T07:58:16.839Z,34.50
2022-08-11T08:01:22.038Z,34.50
2022-08-11T08:04:09.417Z,34.50
2022-08-11T08:06:56.529Z,34.70
2022-08-11T08:09:43.695Z,34.80
2022-08-11T08:12:31.175Z,34.90
2022-08-11T08:15:17.183Z,34.80
2022-08-11T08:18:09.217Z,34.80
2022-08-11T08:20:50.051Z,34.70
2022-08-11T08:23:33.313Z,34.70
2022-08-11T08:26:30.431Z,34.70
2022-08-11T08:29:20.813Z,34.80
2022-08-11T08:31:49.470Z,34.80
2022-08-11T08:34:17.704Z,35.10
2022-08-11T08:36:50.360Z,35.10
2022-08-11T08:39:21.837Z,35.30
2022-08-11T08:41:59.292Z,35.30
2022-08-11T08:44:38.388Z,35.40
2022-08-11T08:47:10.524Z,35.60
2022-08-11T08:52:19.470Z,35.70
2022-08-11T08:52:43.593Z,35.60
2022-08-11T08:55:17.126Z,35.30
2022-08-11T08:57:45.591Z,35.10
2022-08-11T09:00:19.374Z,35.10
2022-08-11T09:02:49.603Z,35.10
2022-08-11T09:05:19.230Z,35.20
2022-08-11T09:07:51.077Z,35.00
2022-08-11T09:10:19.962Z,34.90
2022-08-11T09:12:48.273Z,34.80
2022-08-11T09:15:19.441Z,34.70
2022-08-11T09:18:01.413Z,34.80
2022-08-11T09:20:34.232Z,35.00
2022-08-11T09:24:08.387Z,35.20
2022-08-11T09:26:33.901Z,35.20
2022-08-11T09:29:01.681Z,35.00
2022-08-11T09:31:37.224Z,35.00
2022-08-11T09:34:06.979Z,35.00
2022-08-11T09:36:53.611Z,34.90
2022-08-11T09:39:38.992Z,34.80
2022-08-11T09:42:06.681Z,34.60
2022-08-11T09:59:47.665Z,33.20
2022-08-11T10:02:15.984Z,33.10
2022-08-11T10:04:46.587Z,33.20
2022-08-11T10:07:19.103Z,33.30
2022-08-11T10:09:51.483Z,33.40
2022-08-11T10:12:29.618Z,33.50
2022-08-11T10:15:20.803Z,33.50
2022-08-11T10:18:11.068Z,33.40
2022-08-11T10:20:39.194Z,33.30
2022-08-11T10:23:27.058Z,33.40
2022-08-11T10:26:12.610Z,33.40
2022-08-11T10:29:02.108Z,33.50
2022-08-11T10:31:57.163Z,33.80
2022-08-11T10:34:29.114Z,33.80
2022-08-11T10:36:58.375Z,33.70
2022-08-11T10:39:27.296Z,33.70
2022-08-11T10:42:22.387Z,33.70
2022-08-11T10:44:58.825Z,33.80
2022-08-11T10:47:35.187Z,33.80
2022-08-11T10:50:30.525Z,33.90
2022-08-11T10:53:18.150Z,33.80
2022-08-11T10:56:05.700Z,33.80
2022-08-11T10:58:45.469Z,33.70
2022-08-11T11:01:14.568Z,33.70
2022-08-11T11:03:43.019Z,33.70
2022-08-11T11:06:28.430Z,33.70
2022-08-11T11:09:05.235Z,33.70
2022-08-11T11:11:57.850Z,33.60
2022-08-11T11:14:49.771Z,33.60
2022-08-11T11:18:01.701Z,33.60
2022-08-11T11:20:42.652Z,33.50
2022-08-11T11:23:33.398Z,33.40
2022-08-11T11:26:34.277Z,33.40
2022-08-11T11:29:25.291Z,33.50
2022-08-11T11:32:30.295Z,33.70
2022-08-11T11:35:15.730Z,33.70
2022-08-11T11:38:00.949Z,33.70
2022-08-11T11:40:33.585Z,33.60
2022-08-11T11:43:01.457Z,33.60
2022-08-11T11:45:29.105Z,33.70
2022-08-11T11:47:59.473Z,33.80
2022-08-11T11:50:33.131Z,33.90
2022-08-11T11:53:01.943Z,34.00
2022-08-11T11:55:30.362Z,34.00
2022-08-11T11:58:19.104Z,34.10
2022-08-11T12:01:06.044Z,34.10
2022-08-11T12:03:34.501Z,34.10
2022-08-11T12:06:02.621Z,34.00
2022-08-11T12:08:30.491Z,33.90
2022-08-11T12:11:21.877Z,33.90
2022-08-11T12:13:53.661Z,34.00
2022-08-11T12:16:34.770Z,34.10
2022-08-11T12:19:10.491Z,34.20
2022-08-11T12:21:38.577Z,34.40
2022-08-11T12:24:28.452Z,34.40
2022-08-11T12:27:17.684Z,34.40
2022-08-11T12:29:55.138Z,34.40
2022-08-11T12:32:26.053Z,34.50
2022-08-11T12:34:53.805Z,34.50
2022-08-11T12:37:24.484Z,34.40
2022-08-11T12:40:42.822Z,34.40
2022-08-11T12:43:37.753Z,34.50
2022-08-11T12:46:12.586Z,34.60
2022-08-11T12:49:07.808Z,34.60
2022-08-11T12:52:11.977Z,34.60
2022-08-11T12:55:02.801Z,34.70
2022-08-11T12:57:56.056Z,34.60
2022-08-11T13:00:43.161Z,34.60
2022-08-11T13:03:30.716Z,34.70
2022-08-11T13:06:00.832Z,34.70
2022-08-11T13:08:30.568Z,34.60
2022-08-11T13:11:18.468Z,34.60
2022-08-11T13:13:53.699Z,34.70
2022-08-11T13:16:54.460Z,34.70
2022-08-11T13:19:23.111Z,34.80
2022-08-11T13:21:52.126Z,34.90
2022-08-11T13:24:20.164Z,34.90
2022-08-11T13:26:50.304Z,34.70
2022-08-11T13:29:20.032Z,34.60
2022-08-11T13:31:48.187Z,34.70
2022-08-11T13:34:20.635Z,34.70
2022-08-11T13:36:52.171Z,34.70
2022-08-11T13:39:20.674Z,34.60
2022-08-11T13:41:49.334Z,34.70
2022-08-11T13:44:23.144Z,34.80
2022-08-11T13:46:52.824Z,35.00
2022-08-11T13:49:21.900Z,34.90
2022-08-11T13:51:49.141Z,34.90
2022-08-11T13:54:30.974Z,35.10
2022-08-11T13:57:02.077Z,34.90
2022-08-11T13:59:31.215Z,34.80
2022-08-11T14:02:28.621Z,34.90
2022-08-11T14:04:58.929Z,35.00
2022-08-11T14:07:34.445Z,35.00
2022-08-11T14:10:02.546Z,35.00
2022-08-11T14:12:52.983Z,35.00
2022-08-11T14:15:27.656Z,34.90
2022-08-11T14:18:09.215Z,34.80
2022-08-11T14:20:58.453Z,34.70
2022-08-11T14:23:41.239Z,34.60
2022-08-11T14:26:28.100Z,34.60
2022-08-11T14:29:00.177Z,34.50
2022-08-11T14:31:29.424Z,34.50
2022-08-11T14:33:59.915Z,34.60
2022-08-11T14:36:59.843Z,34.70
2022-08-11T14:39:29.041Z,34.80
2022-08-11T14:42:17.930Z,34.80
2022-08-11T14:45:02.983Z,34.80
2022-08-11T14:47:33.661Z,35.00
2022-08-11T14:50:11.027Z,34.90
2022-08-11T14:52:45.776Z,34.90
2022-08-11T14:55:32.549Z,34.90
2022-08-11T14:58:00.540Z,34.80
2022-08-11T15:00:27.994Z,34.70
2022-08-11T15:03:11.923Z,34.60
2022-08-11T15:05:56.399Z,34.50
2022-08-11T15:08:46.445Z,34.50
2022-08-11T15:11:33.141Z,34.40
2022-08-11T15:14:02.763Z,34.40
2022-08-11T15:16:48.335Z,34.50
2022-08-11T15:19:15.888Z,34.50
2022-08-11T15:22:01.590Z,34.60
2022-08-11T15:24:30.921Z,34.60
2022-08-11T15:27:19.447Z,34.60
2022-08-11T15:30:06.893Z,34.60
2022-08-11T15:32:54.540Z,34.60
2022-08-11T15:35:39.949Z,34.60
2022-08-11T15:38:11.630Z,34.60
2022-08-11T15:41:00.193Z,34.50
2022-08-11T15:44:14.193Z,34.40
2022-08-11T15:46:45.712Z,34.40
2022-08-11T15:49:23.704Z,34.40
2022-08-11T15:52:03.935Z,34.30
2022-08-11T15:54:33.687Z,34.30
2022-08-11T15:57:02.211Z,34.20
2022-08-11T15:59:52.356Z,34.20
2022-08-11T16:02:28.087Z,34.20
2022-08-11T16:04:56.770Z,34.20
2022-08-11T16:07:27.341Z,34.20
2022-08-11T16:10:07.541Z,34.10
2022-08-11T16:13:21.747Z,34.10
2022-08-11T16:16:13.888Z,34.10
2022-08-11T16:18:52.135Z,34.00
2022-08-11T16:21:34.946Z,33.90
2022-08-11T16:24:06.438Z,33.90
2022-08-11T16:27:10.604Z,33.80
2022-08-11T16:29:25.416Z,33.70
2022-08-11T16:32:13.388Z,33.70
2022-08-11T16:34:59.680Z,33.60
2022-08-11T16:37:45.897Z,33.50
2022-08-11T16:40:13.567Z,33.50
2022-08-11T16:43:10.480Z,33.30
2022-08-11T16:46:12.617Z,33.30
2022-08-11T16:48:43.101Z,33.20
2022-08-11T16:51:12.942Z,33.00
2022-08-11T16:54:03.593Z,33.00
2022-08-11T16:56:38.722Z,33.00
2022-08-11T16:59:17.353Z,33.00
2022-08-11T17:01:59.287Z,33.00
2022-08-11T17:04:57.105Z,32.90
2022-08-11T17:07:44.853Z,32.80
2022-08-11T17:10:56.678Z,32.80
2022-08-11T17:13:33.648Z,32.70
2022-08-11T17:16:10.172Z,32.70
2022-08-11T17:18:45.698Z,32.60
2022-08-11T17:21:18.037Z,32.60
2022-08-11T17:23:50.600Z,32.40
2022-08-11T17:26:21.018Z,32.40
2022-08-11T17:28:52.954Z,32.30
2022-08-11T17:31:40.226Z,32.20
2022-08-11T17:34:31.640Z,32.20
2022-08-11T17:37:00.215Z,32.00
2022-08-11T17:39:30.711Z,31.90
2022-08-11T17:42:18.365Z,31.80
2022-08-11T17:45:05.798Z,31.70
2022-08-11T17:47:53.086Z,31.80
2022-08-11T17:50:21.435Z,31.80
2022-08-11T17:53:07.460Z,31.80
2022-08-11T17:55:54.390Z,31.60
2022-08-11T17:58:40.318Z,31.50
2022-08-11T18:01:09.239Z,31.30
2022-08-11T18:03:39.876Z,31.60
2022-08-11T18:06:12.562Z,31.30
2022-08-11T18:09:03.122Z,31.10
2022-08-11T18:12:10.763Z,30.90
2022-08-11T18:14:58.844Z,30.70
2022-08-11T18:17:44.071Z,30.60
2022-08-11T18:20:29.578Z,30.40
2022-08-11T18:23:16.794Z,30.30
2022-08-11T18:26:07.130Z,30.10
2022-08-11T18:29:03.623Z,30.10
2022-08-11T18:31:53.060Z,30.00
2022-08-11T18:34:45.774Z,30.00
2022-08-11T18:37:45.093Z,29.90
2022-08-11T18:40:35.996Z,29.80
2022-08-11T18:43:27.389Z,29.50
2022-08-11T18:46:19.456Z,29.40
2022-08-11T18:49:15.304Z,29.20
2022-08-11T18:52:06.418Z,29.00
2022-08-11T18:54:55.224Z,28.80
2022-08-11T18:57:49.894Z,28.70
2022-08-11T19:00:45.150Z,28.50
2022-08-11T19:03:32.850Z,28.30
2022-08-11T19:06:38.978Z,28.20
2022-08-11T19:09:30.676Z,28.00
2022-08-11T19:12:18.942Z,27.90
2022-08-11T19:15:06.406Z,27.80
2022-08-11T19:17:54.306Z,27.60
2022-08-11T19:20:43.238Z,27.50
2022-08-11T19:23:30.767Z,27.40
2022-08-11T19:26:18.616Z,27.30
2022-08-11T19:29:06.494Z,27.20
2022-08-11T19:31:52.899Z,27.20
2022-08-11T19:34:41.605Z,27.00
2022-08-11T19:37:28.259Z,26.90
2022-08-11T19:40:18.277Z,26.90
2022-08-11T19:43:04.592Z,26.80
2022-08-11T19:46:11.706Z,26.70
2022-08-11T19:48:57.396Z,26.50
2022-08-11T19:51:43.244Z,26.50
2022-08-11T19:54:29.252Z,26.40
2022-08-11T19:57:15.709Z,26.30
2022-08-11T20:00:02.192Z,26.20
2022-08-11T20:02:48.325Z,26.10
2022-08-11T20:05:33.584Z,26.00
2022-08-11T20:08:19.533Z,25.90
2022-08-11T20:11:06.714Z,25.80
2022-08-11T20:13:53.791Z,25.80
2022-08-11T20:16:40.591Z,25.70
2022-08-11T20:19:55.481Z,25.60
2022-08-11T20:22:35.084Z,25.50
2022-08-11T20:25:22.469Z,25.50
2022-08-11T20:28:08.736Z,25.40
2022-08-11T20:30:55.054Z,25.30
2022-08-11T20:33:42.477Z,25.20
2022-08-11T20:36:30.755Z,25.10
2022-08-11T20:39:18.688Z,25.10
2022-08-11T20:42:06.233Z,25.50
2022-08-11T20:44:52.994Z,25.30
2022-08-11T20:47:59.755Z,25.10
2022-08-11T20:50:46.792Z,25.00
2022-08-11T20:53:35.632Z,24.90
2022-08-11T20:56:28.734Z,24.90
2022-08-11T20:59:18.139Z,24.70
2022-08-11T21:02:09.502Z,24.60
2022-08-11T21:04:56.842Z,24.50
2022-08-11T21:07:56.653Z,24.50
2022-08-11T21:10:46.915Z,24.40
2022-08-11T21:13:36.958Z,24.30
2022-08-11T21:16:26.248Z,24.30
2022-08-11T21:19:59.984Z,24.20
2022-08-11T21:22:35.677Z,24.10
2022-08-11T21:25:25.466Z,24.00
2022-08-11T21:28:11.909Z,23.90
2022-08-11T21:30:58.363Z,23.80
2022-08-11T21:33:47.084Z,23.70
2022-08-11T21:36:34.057Z,23.60
2022-08-11T21:39:24.769Z,23.60
2022-08-11T21:42:13.188Z,23.50
2022-08-11T21:45:00.906Z,23.40
2022-08-11T21:47:48.427Z,23.40
2022-08-11T21:50:33.937Z,23.30
2022-08-11T21:53:19.902Z,23.20
2022-08-11T21:56:06.007Z,23.20
2022-08-11T21:58:52.051Z,23.10
2022-08-11T22:01:37.842Z,23.00
2022-08-11T22:04:24.351Z,23.00
2022-08-11T22:07:09.985Z,22.90
2022-08-11T22:09:56.248Z,22.90
2022-08-11T22:12:44.937Z,22.90
2022-08-11T22:15:31.249Z,22.80
2022-08-11T22:18:17.062Z,22.80
2022-08-11T22:21:03.442Z,22.70
2022-08-11T22:23:53.832Z,22.70
2022-08-11T22:26:41.267Z,22.70
2022-08-11T22:29:49.949Z,22.60
2022-08-11T22:32:35.777Z,22.50
2022-08-11T22:35:22.815Z,22.40
2022-08-11T22:38:08.479Z,22.30
2022-08-11T22:40:54.593Z,22.20
2022-08-11T22:43:40.103Z,22.10
2022-08-11T22:46:25.658Z,22.00
2022-08-11T22:49:12.479Z,22.00
2022-08-11T22:52:01.439Z,21.90
2022-08-11T22:54:48.200Z,21.90
2022-08-11T22:57:34.929Z,21.80
2022-08-11T23:00:20.492Z,21.70
2022-08-11T23:03:06.624Z,21.70
2022-08-11T23:05:56.925Z,21.60
2022-08-11T23:08:42.967Z,21.60
2022-08-11T23:11:28.663Z,21.50
2022-08-11T23:14:34.344Z,21.40
2022-08-11T23:17:19.993Z,21.40
2022-08-11T23:20:23.072Z,21.40
2022-08-11T23:23:11.796Z,21.30
2022-08-11T23:25:59.292Z,21.20
2022-08-11T23:28:46.642Z,21.20
2022-08-11T23:31:50.496Z,21.10
2022-08-11T23:35:03.514Z,21.10
2022-08-11T23:38:03.681Z,21.00
2022-08-11T23:40:49.164Z,21.00
2022-08-11T23:43:42.361Z,20.90
2022-08-11T23:46:28.706Z,20.90
2022-08-11T23:49:21.533Z,20.80
2022-08-11T23:52:08.444Z,20.70
2022-08-11T23:54:54.539Z,20.70
2022-08-11T23:57:47.729Z,20.70
